createdAt,value
2022-10-23T00:00:23.203Z,99309.70
2022-10-23T00:05:50.494Z,99311.58
2022-10-23T00:10:57.824Z,99316.98
2022-10-23T00:16:05.864Z,99323.93
2022-10-23T00:21:17.038Z,99335.63
2022-10-23T00:26:24.418Z,99347.95
2022-10-23T00:31:31.478Z,99353.20
2022-10-23T00:36:38.965Z,99360.99
2022-10-23T00:41:45.923Z,99357.73
2022-10-23T00:46:53.131Z,99362.29
2022-10-23T00:52:04.728Z,99367.67
2022-10-23T00:57:16.128Z,99372.14
2022-10-23T01:02:23.227Z,99370.67
2022-10-23T01:07:35.546Z,99368.54
2022-10-23T01:12:51.944Z,99369.38
2022-10-23T01:18:07.291Z,99376.42
2022-10-23T01:23:36.440Z,99373.88
2022-10-23T01:28:49.835Z,99376.53
2022-10-23T01:34:01.499Z,99388.32
2022-10-23T01:39:13.207Z,99383.45
2022-10-23T01:44:29.604Z,99370.69
2022-10-23T01:49:40.697Z,99373.09
2022-10-23T01:54:51.462Z,99383.48
2022-10-23T02:00:03.319Z,99385.80
2022-10-23T02:05:17.200Z,99394.84
2022-10-23T02:10:31.824Z,99401.83
2022-10-23T02:15:42.295Z,99403.05
2022-10-23T02:20:56.585Z,99403.85
2022-10-23T02:26:22.520Z,99410.44
2022-10-23T02:31:29.089Z,99410.06
2022-10-23T02:36:36.738Z,99416.23
2022-10-23T02:41:48.203Z,99409.14
2022-10-23T02:47:02.721Z,99413.73
2022-10-23T02:52:16.081Z,99414.83
2022-10-23T02:57:29.925Z,99420.52
2022-10-23T03:02:42.396Z,99424.01
2022-10-23T03:07:50.774Z,99428.83
2022-10-23T03:12:58.107Z,99428.92
2022-10-23T03:18:05.563Z,99437.40
2022-10-23T03:23:15.185Z,99446.27
2022-10-23T03:28:22.282Z,99444.06
2022-10-23T03:33:29.115Z,99442.25
2022-10-23T03:38:34.755Z,99439.33
2022-10-23T03:43:42.113Z,99442.58
2022-10-23T03:48:49.071Z,99444.64
2022-10-23T03:53:54.715Z,99445.17
2022-10-23T03:59:01.729Z,99445.48
2022-10-23T04:04:09.065Z,99451.64
2022-10-23T04:09:17.159Z,99451.04
2022-10-23T04:14:24.526Z,99449.44
2022-10-23T04:19:31.629Z,99443.05
2022-10-23T04:24:38.645Z,99444.84
2022-10-23T04:29:45.827Z,99448.23
2022-10-23T04:34:52.813Z,99449.34
2022-10-23T04:39:59.807Z,99448.80
2022-10-23T04:45:05.550Z,99455.88
2022-10-23T04:50:13.104Z,99445.64
2022-10-23T04:55:21.031Z,99443.48
2022-10-23T05:00:28.674Z,99443.53
2022-10-23T05:05:35.934Z,99440.65
2022-10-23T05:10:43.214Z,99443.03
2022-10-23T05:15:51.549Z,99448.59
2022-10-23T05:21:02.133Z,99447.59
2022-10-23T05:26:10.260Z,99448.27
2022-10-23T05:31:19.670Z,99446.66
2022-10-23T05:36:27.265Z,99444.48
2022-10-23T05:41:34.457Z,99445.02
2022-10-23T05:46:45.402Z,99444.88
2022-10-23T05:51:52.636Z,99442.09
2022-10-23T05:56:59.646Z,99444.17
2022-10-23T06:02:04.992Z,99449.08
2022-10-23T06:07:12.180Z,99449.03
2022-10-23T06:12:19.113Z,99447.70
2022-10-23T06:17:24.377Z,99448.27
2022-10-23T06:22:31.782Z,99456.99
2022-10-23T06:27:38.640Z,99462.85
2022-10-23T06:32:44.257Z,99465.25
2022-10-23T06:37:51.546Z,99468.98
2022-10-23T06:42:58.490Z,99472.08
2022-10-23T06:48:06.273Z,99479.54
2022-10-23T06:53:13.285Z,99486.73
2022-10-23T06:58:20.290Z,99487.02
2022-10-23T07:03:27.282Z,99486.26
2022-10-23T07:08:33.425Z,99496.21
2022-10-23T07:13:41.260Z,99503.77
2022-10-23T07:18:49.585Z,99505.02
2022-10-23T07:23:57.240Z,99510.38
2022-10-23T07:29:04.573Z,99512.09
2022-10-23T07:34:12.510Z,99512.17
2022-10-23T07:39:19.703Z,99509.23
2022-10-23T07:44:27.908Z,99511.27
2022-10-23T07:49:35.176Z,99526.02
2022-10-23T07:54:42.628Z,99526.56
2022-10-23T07:59:49.778Z,99528.73
2022-10-23T08:04:56.723Z,99535.33
2022-10-23T08:10:03.540Z,99540.80
2022-10-23T08:15:12.153Z,99535.78
2022-10-23T08:20:19.132Z,99522.51
2022-10-23T08:25:26.294Z,99523.41
2022-10-23T08:30:34.842Z,99526.07
2022-10-23T08:35:42.711Z,99526.67
2022-10-23T08:50:45.695Z,99527.20
2022-10-23T08:55:58.164Z,99519.74
2022-10-23T09:01:18.962Z,99526.58
2022-10-23T09:06:36.475Z,99536.72
2022-10-23T09:11:51.199Z,99539.23
2022-10-23T09:17:12.069Z,99538.10
2022-10-23T09:22:19.219Z,99526.11
2022-10-23T09:27:26.230Z,99530.77
2022-10-23T09:32:38.205Z,99533.48
2022-10-23T09:37:53.353Z,99538.74
2022-10-23T09:43:03.973Z,99537.26
2022-10-23T09:48:16.138Z,99524.21
2022-10-23T09:53:31.716Z,99518.85
2022-10-23T09:58:44.507Z,99515.72
2022-10-23T10:03:53.877Z,99504.27
2022-10-23T10:09:03.281Z,99491.45
2022-10-23T10:14:37.432Z,99492.96
2022-10-23T10:20:05.233Z,99494.30
2022-10-23T10:25:20.385Z,99505.10
2022-10-23T10:30:31.556Z,99497.35
2022-10-23T10:35:51.226Z,99493.56
2022-10-23T10:41:35.945Z,99491.34
2022-10-23T10:46:49.778Z,99481.70
2022-10-23T10:52:04.655Z,99474.34
2022-10-23T10:57:22.023Z,99468.41
2022-10-23T11:02:35.326Z,99469.56
2022-10-23T11:07:50.067Z,99460.79
2022-10-23T11:12:58.186Z,99454.05
2022-10-23T11:18:13.698Z,99446.69
2022-10-23T11:23:52.845Z,99437.49
2022-10-23T11:29:21.544Z,99427.86
2022-10-23T11:34:45.711Z,99430.10
2022-10-23T11:40:22.617Z,99426.81
2022-10-23T11:45:35.769Z,99425.41
2022-10-23T11:50:58.179Z,99421.70
2022-10-23T11:56:25.178Z,99414.81
2022-10-23T12:01:42.843Z,99403.98
2022-10-23T12:06:52.247Z,99400.71
2022-10-23T12:12:16.191Z,99391.40
2022-10-23T12:17:31.535Z,99389.88
2022-10-23T12:22:45.333Z,99377.38
2022-10-23T12:28:01.161Z,99364.08
2022-10-23T12:33:18.110Z,99355.65
2022-10-23T12:38:28.643Z,99343.67
2022-10-23T12:43:40.804Z,99340.41
2022-10-23T12:48:54.692Z,99340.68
2022-10-23T12:54:02.779Z,99337.88
2022-10-23T12:59:18.816Z,99339.00
2022-10-23T13:04:31.093Z,99339.25
2022-10-23T13:09:41.085Z,99345.64
2022-10-23T13:15:01.316Z,99346.59
2022-10-23T13:20:26.755Z,99337.14
2022-10-23T13:25:36.632Z,99329.02
2022-10-23T13:30:46.724Z,99322.23
2022-10-23T13:36:00.446Z,99310.83
2022-10-23T13:41:12.531Z,99310.24
2022-10-23T13:46:21.804Z,99318.50
2022-10-23T13:51:31.681Z,99326.34
2022-10-23T13:56:38.570Z,99327.15
2022-10-23T14:01:48.195Z,99326.31
2022-10-23T14:06:58.744Z,99329.84
2022-10-23T14:12:06.219Z,99323.65
2022-10-23T14:17:13.452Z,99316.95
2022-10-23T14:22:21.856Z,99307.20
2022-10-23T14:27:29.950Z,99309.62
2022-10-23T14:32:37.189Z,99311.48
2022-10-23T14:37:44.694Z,99307.57
2022-10-23T14:42:52.199Z,99310.69
2022-10-23T14:48:01.292Z,99308.90
2022-10-23T14:53:08.337Z,99302.52
2022-10-23T14:58:15.854Z,99301.86
2022-10-23T15:03:22.956Z,99299.19
2022-10-23T15:08:30.869Z,99299.66
2022-10-23T15:13:38.190Z,99299.85
2022-10-23T15:18:45.435Z,99300.03
2022-10-23T15:23:53.295Z,99300.08
2022-10-23T15:29:02.278Z,99302.61
2022-10-23T15:34:11.555Z,99301.53
2022-10-23T15:39:21.908Z,99295.92
2022-10-23T15:44:32.191Z,99296.89
2022-10-23T15:49:40.126Z,99296.46
2022-10-23T15:54:47.380Z,99292.62
2022-10-23T15:59:54.404Z,99291.29
2022-10-23T16:05:01.465Z,99295.55
2022-10-23T16:10:10.122Z,99287.33
2022-10-23T16:15:17.493Z,99288.20
2022-10-23T16:20:24.847Z,99298.50
2022-10-23T16:30:46.610Z,99304.96
2022-10-23T16:35:53.685Z,99309.93
2022-10-23T16:41:03.596Z,99316.27
2022-10-23T16:46:16.371Z,99324.69
2022-10-23T16:51:25.893Z,99332.10
2022-10-23T16:56:33.562Z,99337.91
2022-10-23T17:01:41.002Z,99344.52
2022-10-23T17:06:48.265Z,99342.28
2022-10-23T17:11:55.800Z,99343.34
2022-10-23T17:17:04.407Z,99350.36
2022-10-23T17:22:12.925Z,99354.45
2022-10-23T17:27:20.408Z,99351.52
2022-10-23T17:32:27.697Z,99353.73
2022-10-23T17:37:34.914Z,99349.45
2022-10-23T17:42:42.340Z,99351.88
2022-10-23T17:47:50.318Z,99349.44
2022-10-23T17:52:57.168Z,99345.48
2022-10-23T17:58:02.502Z,99341.66
2022-10-23T18:03:09.898Z,99338.70
2022-10-23T18:08:17.458Z,99336.49
2022-10-23T18:13:25.051Z,99331.36
2022-10-23T18:18:32.212Z,99325.48
2022-10-23T18:23:39.525Z,99320.64
2022-10-23T18:28:47.735Z,99322.08
2022-10-23T18:33:58.616Z,99316.55
2022-10-23T18:39:06.644Z,99317.98
2022-10-23T18:44:18.054Z,99316.67
2022-10-23T18:49:25.541Z,99314.45
2022-10-23T18:54:32.980Z,99315.23
2022-10-23T18:59:40.225Z,99312.55
2022-10-23T19:04:47.322Z,99305.63
2022-10-23T19:09:54.469Z,99299.61
2022-10-23T19:15:02.378Z,99294.37
2022-10-23T19:20:14.968Z,99288.29
2022-10-23T19:25:26.779Z,99290.05
2022-10-23T19:30:34.059Z,99293.41
2022-10-23T19:35:41.283Z,99295.73
2022-10-23T19:40:48.783Z,99286.11
2022-10-23T19:45:56.108Z,99277.92
2022-10-23T19:51:04.279Z,99282.16
2022-10-23T19:56:13.583Z,99277.27
2022-10-23T20:01:24.407Z,99277.80
2022-10-23T20:06:34.829Z,99278.07
2022-10-23T20:11:43.866Z,99277.49
2022-10-23T20:16:55.728Z,99273.27
2022-10-23T20:22:03.582Z,99282.80
2022-10-23T20:27:13.760Z,99277.95
2022-10-23T20:32:21.026Z,99276.86
2022-10-23T20:37:28.289Z,99258.46
2022-10-23T20:42:35.090Z,99261.45
2022-10-23T20:47:40.914Z,99259.49
2022-10-23T20:52:48.473Z,99255.76
2022-10-23T20:57:56.563Z,99256.94
2022-10-23T21:03:05.590Z,99250.63
2022-10-23T21:08:12.558Z,99256.89
2022-10-23T21:13:18.124Z,99254.51
2022-10-23T21:18:44.952Z,99247.38
2022-10-23T21:23:55.282Z,99248.48
2022-10-23T21:29:19.512Z,99235.80
2022-10-23T21:34:27.969Z,99230.86
2022-10-23T21:39:34.880Z,99227.31
2022-10-23T21:44:40.463Z,99221.29
2022-10-23T21:49:47.744Z,99228.55
2022-10-23T21:54:56.781Z,99233.65
2022-10-23T22:00:03.788Z,99236.87
2022-10-23T22:05:09.913Z,99233.65
2022-10-23T22:10:17.458Z,99227.51
2022-10-23T22:15:24.694Z,99227.03
2022-10-23T22:20:30.220Z,99221.45
2022-10-23T22:25:41.003Z,99232.77
2022-10-23T22:30:49.048Z,99230.20
2022-10-23T22:36:00.970Z,99212.53
2022-10-23T22:41:08.901Z,99202.77
2022-10-23T22:46:17.830Z,99193.35
2022-10-23T22:51:27.850Z,99193.98
2022-10-23T22:56:35.236Z,99187.88
2022-10-23T23:01:44.851Z,99174.33
2022-10-23T23:06:51.853Z,99172.88
2022-10-23T23:11:58.675Z,99169.92
2022-10-23T23:22:31.683Z,99182.97
2022-10-23T23:27:37.754Z,99188.11
2022-10-23T23:32:44.877Z,99188.11
2022-10-23T23:37:52.452Z,99165.03
2022-10-23T23:42:59.650Z,99155.67
2022-10-23T23:48:07.743Z,99165.14
2022-10-23T23:53:14.638Z,99169.18
2022-10-23T23:58:21.771Z,99162.52
